sensor_id;sensor_type;location;lat;lon;timestamp;temperature;humidity
13251;DHT22;6692;50.710;7.180;2022-09-09T00:00:21;17.80;99.90
13251;DHT22;6692;50.710;7.180;2022-09-09T00:02:23;17.70;99.90
13251;DHT22;6692;50.710;7.180;2022-09-09T00:04:26;17.60;99.90
13251;DHT22;6692;50.710;7.180;2022-09-09T00:06:28;17.70;99.90
13251;DHT22;6692;50.710;7.180;2022-09-09T00:08:51;17.60;99.90
13251;DHT22;6692;50.710;7.180;2022-09-09T00:10:48;17.60;99.90
13251;DHT22;6692;50.710;7.180;2022-09-09T00:15:07;17.60;99.90
13251;DHT22;6692;50.710;7.180;2022-09-09T00:17:09;17.50;99.90
13251;DHT22;6692;50.710;7.180;2022-09-09T00:19:21;17.50;99.90
13251;DHT22;6692;50.710;7.180;2022-09-09T00:21:20;17.50;99.90
13251;DHT22;6692;50.710;7.180;2022-09-09T00:23:31;17.60;99.90
13251;DHT22;6692;50.710;7.180;2022-09-09T00:25:37;17.50;99.90
13251;DHT22;6692;50.710;7.180;2022-09-09T00:27:40;17.50;99.90
13251;DHT22;6692;50.710;7.180;2022-09-09T00:29:41;17.40;99.90
13251;DHT22;6692;50.710;7.180;2022-09-09T00:31:40;17.40;99.90
13251;DHT22;6692;50.710;7.180;2022-09-09T00:33:40;17.40;99.90
13251;DHT22;6692;50.710;7.180;2022-09-09T00:35:45;17.30;99.90
13251;DHT22;6692;50.710;7.180;2022-09-09T00:37:45;17.30;99.90
13251;DHT22;6692;50.710;7.180;2022-09-09T00:39:45;17.40;99.90
13251;DHT22;6692;50.710;7.180;2022-09-09T00:43:57;17.40;99.90
13251;DHT22;6692;50.710;7.180;2022-09-09T00:46:14;17.40;99.90
13251;DHT22;6692;50.710;7.180;2022-09-09T00:48:14;17.30;99.90
13251;DHT22;6692;50.710;7.180;2022-09-09T00:50:49;17.40;99.90
13251;DHT22;6692;50.710;7.180;2022-09-09T00:53:31;17.40;99.90
13251;DHT22;6692;50.710;7.180;2022-09-09T00:55:16;17.40;99.90
13251;DHT22;6692;50.710;7.180;2022-09-09T00:57:27;17.40;99.90
13251;DHT22;6692;50.710;7.180;2022-09-09T01:01:35;17.40;99.90
13251;DHT22;6692;50.710;7.180;2022-09-09T01:03:37;17.30;99.90
13251;DHT22;6692;50.710;7.180;2022-09-09T01:05:44;17.30;99.90
13251;DHT22;6692;50.710;7.180;2022-09-09T01:07:43;17.20;99.90
13251;DHT22;6692;50.710;7.180;2022-09-09T01:10:03;17.30;99.90
13251;DHT22;6692;50.710;7.180;2022-09-09T01:12:11;17.40;99.90
13251;DHT22;6692;50.710;7.180;2022-09-09T01:14:20;17.20;99.90
13251;DHT22;6692;50.710;7.180;2022-09-09T01:16:21;17.30;99.90
13251;DHT22;6692;50.710;7.180;2022-09-09T01:18:23;17.30;99.90
13251;DHT22;6692;50.710;7.180;2022-09-09T01:20:24;17.30;99.90
13251;DHT22;6692;50.710;7.180;2022-09-09T01:22:29;17.40;99.90
13251;DHT22;6692;50.710;7.180;2022-09-09T01:24:33;17.50;99.90
13251;DHT22;6692;50.710;7.180;2022-09-09T01:26:35;17.40;99.90
13251;DHT22;6692;50.710;7.180;2022-09-09T01:28:35;17.50;99.90
13251;DHT22;6692;50.710;7.180;2022-09-09T01:30:37;17.40;99.90
13251;DHT22;6692;50.710;7.180;2022-09-09T01:32:41;17.50;99.90
13251;DHT22;6692;50.710;7.180;2022-09-09T01:34:41;17.50;99.90
13251;DHT22;6692;50.710;7.180;2022-09-09T01:36:46;17.50;99.90
13251;DHT22;6692;50.710;7.180;2022-09-09T01:38:47;17.50;99.90
13251;DHT22;6692;50.710;7.180;2022-09-09T01:40:47;17.50;99.90
13251;DHT22;6692;50.710;7.180;2022-09-09T01:42:48;17.60;99.90
13251;DHT22;6692;50.710;7.180;2022-09-09T01:44:49;17.60;99.90
13251;DHT22;6692;50.710;7.180;2022-09-09T01:46:49;17.60;99.90
13251;DHT22;6692;50.710;7.180;2022-09-09T01:48:51;17.70;99.90
13251;DHT22;6692;50.710;7.180;2022-09-09T01:50:51;17.70;99.90
13251;DHT22;6692;50.710;7.180;2022-09-09T01:52:53;17.70;99.90
13251;DHT22;6692;50.710;7.180;2022-09-09T01:54:53;17.70;99.90
13251;DHT22;6692;50.710;7.180;2022-09-09T01:59:48;17.70;99.90
13251;DHT22;6692;50.710;7.180;2022-09-09T02:01:52;17.70;99.90
13251;DHT22;6692;50.710;7.180;2022-09-09T02:03:52;17.70;99.90
13251;DHT22;6692;50.710;7.180;2022-09-09T02:06:14;17.60;99.90
13251;DHT22;6692;50.710;7.180;2022-09-09T02:08:23;17.60;99.90
13251;DHT22;6692;50.710;7.180;2022-09-09T02:10:23;17.70;99.90
13251;DHT22;6692;50.710;7.180;2022-09-09T02:12:22;17.80;99.90
13251;DHT22;6692;50.710;7.180;2022-09-09T02:14:24;17.80;99.90
13251;DHT22;6692;50.710;7.180;2022-09-09T02:16:34;17.80;99.90
13251;DHT22;6692;50.710;7.180;2022-09-09T02:18:36;17.80;99.90
13251;DHT22;6692;50.710;7.180;2022-09-09T02:20:36;17.80;99.90
13251;DHT22;6692;50.710;7.180;2022-09-09T02:22:38;17.90;99.90
13251;DHT22;6692;50.710;7.180;2022-09-09T02:24:39;17.90;99.90
13251;DHT22;6692;50.710;7.180;2022-09-09T02:26:40;17.90;99.90
13251;DHT22;6692;50.710;7.180;2022-09-09T02:28:40;17.80;99.90
13251;DHT22;6692;50.710;7.180;2022-09-09T02:30:40;17.90;99.90
13251;DHT22;6692;50.710;7.180;2022-09-09T02:32:41;17.90;99.90
13251;DHT22;6692;50.710;7.180;2022-09-09T02:34:44;17.90;99.90
13251;DHT22;6692;50.710;7.180;2022-09-09T02:36:44;18.00;99.90
13251;DHT22;6692;50.710;7.180;2022-09-09T02:38:45;17.90;99.90
13251;DHT22;6692;50.710;7.180;2022-09-09T02:40:45;17.80;99.90
13251;DHT22;6692;50.710;7.180;2022-09-09T02:42:47;17.80;99.90
13251;DHT22;6692;50.710;7.180;2022-09-09T02:44:47;17.90;99.90
13251;DHT22;6692;50.710;7.180;2022-09-09T02:49:10;17.90;99.90
13251;DHT22;6692;50.710;7.180;2022-09-09T02:51:14;17.90;99.90
13251;DHT22;6692;50.710;7.180;2022-09-09T02:53:17;17.90;99.90
13251;DHT22;6692;50.710;7.180;2022-09-09T02:55:23;17.90;99.90
13251;DHT22;6692;50.710;7.180;2022-09-09T02:57:22;18.00;99.90
13251;DHT22;6692;50.710;7.180;2022-09-09T02:59:21;18.00;99.90
13251;DHT22;6692;50.710;7.180;2022-09-09T03:01:22;18.00;99.90
13251;DHT22;6692;50.710;7.180;2022-09-09T03:03:23;18.10;99.90
13251;DHT22;6692;50.710;7.180;2022-09-09T03:05:23;18.10;99.90
13251;DHT22;6692;50.710;7.180;2022-09-09T03:07:24;18.10;99.90
13251;DHT22;6692;50.710;7.180;2022-09-09T03:09:25;18.00;99.90
13251;DHT22;6692;50.710;7.180;2022-09-09T03:11:26;18.10;99.90
13251;DHT22;6692;50.710;7.180;2022-09-09T03:13:27;18.10;99.90
13251;DHT22;6692;50.710;7.180;2022-09-09T03:15:28;18.10;99.90
13251;DHT22;6692;50.710;7.180;2022-09-09T03:17:28;18.10;99.90
13251;DHT22;6692;50.710;7.180;2022-09-09T03:19:29;18.10;99.90
13251;DHT22;6692;50.710;7.180;2022-09-09T03:21:30;18.10;99.90
13251;DHT22;6692;50.710;7.180;2022-09-09T03:23:30;18.10;99.90
13251;DHT22;6692;50.710;7.180;2022-09-09T03:25:31;18.10;99.90
13251;DHT22;6692;50.710;7.180;2022-09-09T03:27:32;18.10;99.90
13251;DHT22;6692;50.710;7.180;2022-09-09T03:29:32;18.20;99.90
13251;DHT22;6692;50.710;7.180;2022-09-09T03:31:33;18.10;99.90
13251;DHT22;6692;50.710;7.180;2022-09-09T03:33:34;18.10;99.90
13251;DHT22;6692;50.710;7.180;2022-09-09T03:35:35;18.10;99.90
13251;DHT22;6692;50.710;7.180;2022-09-09T03:37:35;18.10;99.90
13251;DHT22;6692;50.710;7.180;2022-09-09T03:39:36;18.10;99.90
13251;DHT22;6692;50.710;7.180;2022-09-09T03:41:37;18.00;99.90
13251;DHT22;6692;50.710;7.180;2022-09-09T03:43:37;18.10;99.90
13251;DHT22;6692;50.710;7.180;2022-09-09T03:45:38;18.10;99.90
13251;DHT22;6692;50.710;7.180;2022-09-09T03:47:38;18.00;99.90
13251;DHT22;6692;50.710;7.180;2022-09-09T03:49:39;18.00;99.90
13251;DHT22;6692;50.710;7.180;2022-09-09T03:51:40;18.00;99.90
13251;DHT22;6692;50.710;7.180;2022-09-09T03:53:40;18.00;99.90
13251;DHT22;6692;50.710;7.180;2022-09-09T03:55:45;18.00;99.90
13251;DHT22;6692;50.710;7.180;2022-09-09T03:57:45;18.00;99.90
13251;DHT22;6692;50.710;7.180;2022-09-09T03:59:46;17.90;99.90
13251;DHT22;6692;50.710;7.180;2022-09-09T04:01:47;18.00;99.90
13251;DHT22;6692;50.710;7.180;2022-09-09T04:03:47;18.00;99.90
13251;DHT22;6692;50.710;7.180;2022-09-09T04:05:48;18.00;99.90
13251;DHT22;6692;50.710;7.180;2022-09-09T04:07:48;18.00;99.90
13251;DHT22;6692;50.710;7.180;2022-09-09T04:09:50;18.00;99.90
13251;DHT22;6692;50.710;7.180;2022-09-09T04:11:50;17.90;99.90
13251;DHT22;6692;50.710;7.180;2022-09-09T04:13:51;17.90;99.90
13251;DHT22;6692;50.710;7.180;2022-09-09T04:15:55;18.00;99.90
13251;DHT22;6692;50.710;7.180;2022-09-09T04:17:55;17.90;99.90
13251;DHT22;6692;50.710;7.180;2022-09-09T04:19:56;17.90;99.90
13251;DHT22;6692;50.710;7.180;2022-09-09T04:21:57;17.80;99.90
13251;DHT22;6692;50.710;7.180;2022-09-09T04:23:58;17.60;99.90
13251;DHT22;6692;50.710;7.180;2022-09-09T04:26:00;17.60;99.90
13251;DHT22;6692;50.710;7.180;2022-09-09T04:28:00;17.70;99.90
13251;DHT22;6692;50.710;7.180;2022-09-09T04:30:00;17.60;99.90
13251;DHT22;6692;50.710;7.180;2022-09-09T04:32:01;17.60;99.90
13251;DHT22;6692;50.710;7.180;2022-09-09T04:34:02;17.70;99.90
13251;DHT22;6692;50.710;7.180;2022-09-09T04:36:02;17.70;99.90
13251;DHT22;6692;50.710;7.180;2022-09-09T04:38:03;17.60;99.90
13251;DHT22;6692;50.710;7.180;2022-09-09T04:40:05;17.60;99.90
13251;DHT22;6692;50.710;7.180;2022-09-09T04:42:06;17.60;99.90
13251;DHT22;6692;50.710;7.180;2022-09-09T04:44:07;17.60;99.90
13251;DHT22;6692;50.710;7.180;2022-09-09T04:46:08;17.60;99.90
13251;DHT22;6692;50.710;7.180;2022-09-09T04:48:09;17.60;99.90
13251;DHT22;6692;50.710;7.180;2022-09-09T04:50:10;17.50;99.90
13251;DHT22;6692;50.710;7.180;2022-09-09T04:52:11;17.60;99.90
13251;DHT22;6692;50.710;7.180;2022-09-09T04:54:11;17.50;99.90
13251;DHT22;6692;50.710;7.180;2022-09-09T04:56:14;17.60;99.90
13251;DHT22;6692;50.710;7.180;2022-09-09T04:58:14;17.60;99.90
13251;DHT22;6692;50.710;7.180;2022-09-09T05:00:15;17.50;99.90
13251;DHT22;6692;50.710;7.180;2022-09-09T05:02:16;17.50;99.90
13251;DHT22;6692;50.710;7.180;2022-09-09T05:04:16;17.60;99.90
13251;DHT22;6692;50.710;7.180;2022-09-09T05:06:18;17.60;99.90
13251;DHT22;6692;50.710;7.180;2022-09-09T05:08:17;17.60;99.90
13251;DHT22;6692;50.710;7.180;2022-09-09T05:10:19;17.60;99.90
13251;DHT22;6692;50.710;7.180;2022-09-09T05:12:19;17.50;99.90
13251;DHT22;6692;50.710;7.180;2022-09-09T05:14:20;17.60;99.90
13251;DHT22;6692;50.710;7.180;2022-09-09T05:16:21;17.70;99.90
13251;DHT22;6692;50.710;7.180;2022-09-09T05:18:21;17.60;99.90
13251;DHT22;6692;50.710;7.180;2022-09-09T05:20:23;17.60;99.90
13251;DHT22;6692;50.710;7.180;2022-09-09T05:22:23;17.50;99.90
13251;DHT22;6692;50.710;7.180;2022-09-09T05:24:25;17.50;99.90
13251;DHT22;6692;50.710;7.180;2022-09-09T05:26:25;17.50;99.90
13251;DHT22;6692;50.710;7.180;2022-09-09T05:28:26;17.70;99.90
13251;DHT22;6692;50.710;7.180;2022-09-09T05:30:27;17.70;99.90
13251;DHT22;6692;50.710;7.180;2022-09-09T05:32:29;17.60;99.90
13251;DHT22;6692;50.710;7.180;2022-09-09T05:34:28;17.80;99.90
13251;DHT22;6692;50.710;7.180;2022-09-09T05:36:28;17.70;99.90
13251;DHT22;6692;50.710;7.180;2022-09-09T05:38:30;17.70;99.90
13251;DHT22;6692;50.710;7.180;2022-09-09T05:40:30;17.60;99.90
13251;DHT22;6692;50.710;7.180;2022-09-09T05:42:31;17.80;99.90
13251;DHT22;6692;50.710;7.180;2022-09-09T05:44:32;17.80;99.90
13251;DHT22;6692;50.710;7.180;2022-09-09T05:46:32;17.70;99.90
13251;DHT22;6692;50.710;7.180;2022-09-09T05:48:34;17.80;99.90
13251;DHT22;6692;50.710;7.180;2022-09-09T05:50:34;17.70;99.90
13251;DHT22;6692;50.710;7.180;2022-09-09T05:52:35;17.70;99.90
13251;DHT22;6692;50.710;7.180;2022-09-09T05:54:36;17.70;99.90
13251;DHT22;6692;50.710;7.180;2022-09-09T05:56:36;17.80;99.90
13251;DHT22;6692;50.710;7.180;2022-09-09T05:58:37;17.90;99.90
13251;DHT22;6692;50.710;7.180;2022-09-09T06:00:38;17.90;99.90
13251;DHT22;6692;50.710;7.180;2022-09-09T06:02:38;17.90;99.90
13251;DHT22;6692;50.710;7.180;2022-09-09T06:04:39;17.90;99.90
13251;DHT22;6692;50.710;7.180;2022-09-09T06:06:40;17.80;99.90
13251;DHT22;6692;50.710;7.180;2022-09-09T06:08:41;17.80;99.90
13251;DHT22;6692;50.710;7.180;2022-09-09T06:10:41;17.80;99.90
13251;DHT22;6692;50.710;7.180;2022-09-09T06:12:41;17.90;99.90
13251;DHT22;6692;50.710;7.180;2022-09-09T06:14:42;17.90;99.90
13251;DHT22;6692;50.710;7.180;2022-09-09T06:16:43;17.90;99.90
13251;DHT22;6692;50.710;7.180;2022-09-09T06:18:44;17.80;99.90
13251;DHT22;6692;50.710;7.180;2022-09-09T06:21:00;17.90;99.90
13251;DHT22;6692;50.710;7.180;2022-09-09T06:23:03;18.00;99.90
13251;DHT22;6692;50.710;7.180;2022-09-09T06:25:03;18.00;99.90
13251;DHT22;6692;50.710;7.180;2022-09-09T06:27:04;17.90;99.90
13251;DHT22;6692;50.710;7.180;2022-09-09T06:29:04;17.90;99.90
13251;DHT22;6692;50.710;7.180;2022-09-09T06:31:07;17.90;99.90
13251;DHT22;6692;50.710;7.180;2022-09-09T06:33:07;18.00;99.90
13251;DHT22;6692;50.710;7.180;2022-09-09T06:35:08;17.90;99.90
13251;DHT22;6692;50.710;7.180;2022-09-09T06:37:09;17.90;99.90
13251;DHT22;6692;50.710;7.180;2022-09-09T06:39:10;17.90;99.90
13251;DHT22;6692;50.710;7.180;2022-09-09T06:41:11;17.90;99.90
13251;DHT22;6692;50.710;7.180;2022-09-09T06:43:11;18.00;99.90
13251;DHT22;6692;50.710;7.180;2022-09-09T06:45:12;18.00;99.90
13251;DHT22;6692;50.710;7.180;2022-09-09T06:47:13;18.00;99.90
13251;DHT22;6692;50.710;7.180;2022-09-09T06:49:13;18.10;99.90
13251;DHT22;6692;50.710;7.180;2022-09-09T06:51:16;18.10;99.90
13251;DHT22;6692;50.710;7.180;2022-09-09T06:53:17;18.20;99.90
13251;DHT22;6692;50.710;7.180;2022-09-09T06:55:17;18.20;99.90
13251;DHT22;6692;50.710;7.180;2022-09-09T06:57:18;18.20;99.90
13251;DHT22;6692;50.710;7.180;2022-09-09T06:59:18;18.20;99.90
13251;DHT22;6692;50.710;7.180;2022-09-09T07:01:20;18.20;99.90
13251;DHT22;6692;50.710;7.180;2022-09-09T07:03:19;18.20;99.90
13251;DHT22;6692;50.710;7.180;2022-09-09T07:05:20;18.10;99.90
13251;DHT22;6692;50.710;7.180;2022-09-09T07:07:21;18.00;99.90
13251;DHT22;6692;50.710;7.180;2022-09-09T07:09:22;18.10;99.90
13251;DHT22;6692;50.710;7.180;2022-09-09T07:11:24;18.10;99.90
13251;DHT22;6692;50.710;7.180;2022-09-09T07:13:24;18.10;99.90
13251;DHT22;6692;50.710;7.180;2022-09-09T07:15:24;18.10;99.90
13251;DHT22;6692;50.710;7.180;2022-09-09T07:17:25;18.10;99.90
13251;DHT22;6692;50.710;7.180;2022-09-09T07:19:25;18.10;99.90
13251;DHT22;6692;50.710;7.180;2022-09-09T07:21:27;18.10;99.90
13251;DHT22;6692;50.710;7.180;2022-09-09T07:23:28;18.10;99.90
13251;DHT22;6692;50.710;7.180;2022-09-09T07:25:28;18.20;99.90
13251;DHT22;6692;50.710;7.180;2022-09-09T07:27:28;18.30;99.90
13251;DHT22;6692;50.710;7.180;2022-09-09T07:29:29;18.30;99.90
13251;DHT22;6692;50.710;7.180;2022-09-09T07:31:31;18.30;99.90
13251;DHT22;6692;50.710;7.180;2022-09-09T07:33:32;18.30;99.90
13251;DHT22;6692;50.710;7.180;2022-09-09T07:35:31;18.40;99.90
13251;DHT22;6692;50.710;7.180;2022-09-09T07:37:32;18.50;99.90
13251;DHT22;6692;50.710;7.180;2022-09-09T07:39:32;18.60;99.90
13251;DHT22;6692;50.710;7.180;2022-09-09T07:41:34;18.70;99.90
13251;DHT22;6692;50.710;7.180;2022-09-09T07:43:34;18.80;99.90
13251;DHT22;6692;50.710;7.180;2022-09-09T07:45:34;18.90;99.90
13251;DHT22;6692;50.710;7.180;2022-09-09T07:47:35;18.80;99.90
13251;DHT22;6692;50.710;7.180;2022-09-09T07:49:36;18.90;99.90
13251;DHT22;6692;50.710;7.180;2022-09-09T07:51:38;19.00;99.90
13251;DHT22;6692;50.710;7.180;2022-09-09T07:53:38;19.00;99.90
13251;DHT22;6692;50.710;7.180;2022-09-09T07:55:38;19.00;99.90
13251;DHT22;6692;50.710;7.180;2022-09-09T07:57:40;18.90;99.90
13251;DHT22;6692;50.710;7.180;2022-09-09T07:59:40;18.90;99.90
13251;DHT22;6692;50.710;7.180;2022-09-09T08:01:43;18.90;99.90
13251;DHT22;6692;50.710;7.180;2022-09-09T08:03:44;19.00;99.90
13251;DHT22;6692;50.710;7.180;2022-09-09T08:05:44;18.90;99.90
13251;DHT22;6692;50.710;7.180;2022-09-09T08:07:45;19.00;99.90
13251;DHT22;6692;50.710;7.180;2022-09-09T08:09:45;19.00;99.90
13251;DHT22;6692;50.710;7.180;2022-09-09T08:11:46;19.00;99.90
13251;DHT22;6692;50.710;7.180;2022-09-09T08:13:46;19.00;99.90
13251;DHT22;6692;50.710;7.180;2022-09-09T08:15:47;19.10;99.90
13251;DHT22;6692;50.710;7.180;2022-09-09T08:17:48;19.10;99.90
13251;DHT22;6692;50.710;7.180;2022-09-09T08:19:48;19.20;99.90
13251;DHT22;6692;50.710;7.180;2022-09-09T08:21:49;19.20;99.90
13251;DHT22;6692;50.710;7.180;2022-09-09T08:23:50;19.30;99.90
13251;DHT22;6692;50.710;7.180;2022-09-09T08:25:50;19.30;99.90
13251;DHT22;6692;50.710;7.180;2022-09-09T08:27:52;19.40;99.90
13251;DHT22;6692;50.710;7.180;2022-09-09T08:29:52;19.40;99.90
13251;DHT22;6692;50.710;7.180;2022-09-09T08:31:54;19.40;99.90
13251;DHT22;6692;50.710;7.180;2022-09-09T08:33:54;19.50;99.90
13251;DHT22;6692;50.710;7.180;2022-09-09T08:35:54;19.60;99.90
13251;DHT22;6692;50.710;7.180;2022-09-09T08:37:55;19.80;99.90
13251;DHT22;6692;50.710;7.180;2022-09-09T08:39:55;19.80;99.90
13251;DHT22;6692;50.710;7.180;2022-09-09T08:42:30;19.90;99.90
13251;DHT22;6692;50.710;7.180;2022-09-09T08:44:56;19.90;99.90
13251;DHT22;6692;50.710;7.180;2022-09-09T08:49:19;20.00;99.90
13251;DHT22;6692;50.710;7.180;2022-09-09T08:51:17;20.00;99.90
13251;DHT22;6692;50.710;7.180;2022-09-09T08:53:20;20.00;99.90
13251;DHT22;6692;50.710;7.180;2022-09-09T08:55:28;20.00;99.90
13251;DHT22;6692;50.710;7.180;2022-09-09T08:57:28;20.00;99.90
13251;DHT22;6692;50.710;7.180;2022-09-09T08:59:27;20.00;99.90
13251;DHT22;6692;50.710;7.180;2022-09-09T09:01:34;20.00;99.90
13251;DHT22;6692;50.710;7.180;2022-09-09T09:06:00;20.10;99.90
13251;DHT22;6692;50.710;7.180;2022-09-09T09:08:06;20.10;99.90
13251;DHT22;6692;50.710;7.180;2022-09-09T09:10:14;20.10;99.90
13251;DHT22;6692;50.710;7.180;2022-09-09T09:12:15;20.10;99.90
13251;DHT22;6692;50.710;7.180;2022-09-09T09:14:18;20.20;99.90
13251;DHT22;6692;50.710;7.180;2022-09-09T09:16:23;20.10;99.90
13251;DHT22;6692;50.710;7.180;2022-09-09T09:18:22;20.20;99.90
13251;DHT22;6692;50.710;7.180;2022-09-09T09:20:28;20.50;99.90
13251;DHT22;6692;50.710;7.180;2022-09-09T09:22:29;20.50;99.90
13251;DHT22;6692;50.710;7.180;2022-09-09T09:26:57;20.70;99.90
13251;DHT22;6692;50.710;7.180;2022-09-09T09:28:57;20.80;99.90
13251;DHT22;6692;50.710;7.180;2022-09-09T09:31:03;20.90;99.90
13251;DHT22;6692;50.710;7.180;2022-09-09T09:33:04;20.90;99.90
13251;DHT22;6692;50.710;7.180;2022-09-09T09:35:06;21.00;99.90
13251;DHT22;6692;50.710;7.180;2022-09-09T09:37:12;21.00;99.90
13251;DHT22;6692;50.710;7.180;2022-09-09T09:39:06;21.10;99.90
13251;DHT22;6692;50.710;7.180;2022-09-09T09:41:07;21.10;99.90
13251;DHT22;6692;50.710;7.180;2022-09-09T09:43:16;21.10;99.90
13251;DHT22;6692;50.710;7.180;2022-09-09T09:45:16;21.10;99.90
13251;DHT22;6692;50.710;7.180;2022-09-09T09:47:16;21.10;99.90
13251;DHT22;6692;50.710;7.180;2022-09-09T09:49:16;21.00;99.90
13251;DHT22;6692;50.710;7.180;2022-09-09T09:51:16;21.00;99.90
13251;DHT22;6692;50.710;7.180;2022-09-09T09:53:19;21.00;99.90
13251;DHT22;6692;50.710;7.180;2022-09-09T09:55:18;20.80;99.90
13251;DHT22;6692;50.710;7.180;2022-09-09T09:57:22;20.80;99.90
13251;DHT22;6692;50.710;7.180;2022-09-09T09:59:35;20.70;99.90
13251;DHT22;6692;50.710;7.180;2022-09-09T10:01:36;20.70;99.90
13251;DHT22;6692;50.710;7.180;2022-09-09T10:03:36;20.70;99.90
13251;DHT22;6692;50.710;7.180;2022-09-09T10:05:37;20.70;99.90
13251;DHT22;6692;50.710;7.180;2022-09-09T10:07:38;20.70;99.90
13251;DHT22;6692;50.710;7.180;2022-09-09T10:09:38;20.80;99.90
13251;DHT22;6692;50.710;7.180;2022-09-09T10:11:44;20.80;99.90
13251;DHT22;6692;50.710;7.180;2022-09-09T10:14:05;20.90;99.90
13251;DHT22;6692;50.710;7.180;2022-09-09T10:18:42;21.10;99.90
13251;DHT22;6692;50.710;7.180;2022-09-09T10:21:16;21.10;99.90
13251;DHT22;6692;50.710;7.180;2022-09-09T10:25:34;21.20;99.90
13251;DHT22;6692;50.710;7.180;2022-09-09T10:27:42;21.20;99.90
13251;DHT22;6692;50.710;7.180;2022-09-09T10:29:47;21.20;99.90
13251;DHT22;6692;50.710;7.180;2022-09-09T10:33:08;21.20;99.90
13251;DHT22;6692;50.710;7.180;2022-09-09T10:36:24;21.30;99.90
13251;DHT22;6692;50.710;7.180;2022-09-09T10:38:40;21.30;99.90
13251;DHT22;6692;50.710;7.180;2022-09-09T10:40:59;21.40;99.90
13251;DHT22;6692;50.710;7.180;2022-09-09T10:42:51;21.40;99.90
13251;DHT22;6692;50.710;7.180;2022-09-09T10:45:02;21.50;99.90
13251;DHT22;6692;50.710;7.180;2022-09-09T10:47:11;21.50;99.90
13251;DHT22;6692;50.710;7.180;2022-09-09T10:49:34;21.50;99.90
13251;DHT22;6692;50.710;7.180;2022-09-09T10:51:40;21.50;99.90
13251;DHT22;6692;50.710;7.180;2022-09-09T10:53:51;21.70;99.90
13251;DHT22;6692;50.710;7.180;2022-09-09T10:55:51;21.80;99.90
13251;DHT22;6692;50.710;7.180;2022-09-09T10:57:50;21.90;99.90
13251;DHT22;6692;50.710;7.180;2022-09-09T10:59:51;21.90;99.90
13251;DHT22;6692;50.710;7.180;2022-09-09T11:01:53;21.90;99.90
13251;DHT22;6692;50.710;7.180;2022-09-09T11:03:56;21.90;99.90
13251;DHT22;6692;50.710;7.180;2022-09-09T11:05:56;21.90;99.90
13251;DHT22;6692;50.710;7.180;2022-09-09T11:07:59;21.90;99.90
13251;DHT22;6692;50.710;7.180;2022-09-09T11:10:01;21.80;99.90
13251;DHT22;6692;50.710;7.180;2022-09-09T11:12:02;21.70;99.90
13251;DHT22;6692;50.710;7.180;2022-09-09T11:14:05;21.70;99.90
13251;DHT22;6692;50.710;7.180;2022-09-09T11:18:17;21.60;99.90
13251;DHT22;6692;50.710;7.180;2022-09-09T11:20:15;21.50;99.90
13251;DHT22;6692;50.710;7.180;2022-09-09T11:24:37;21.60;99.90
13251;DHT22;6692;50.710;7.180;2022-09-09T11:26:38;21.90;99.90
13251;DHT22;6692;50.710;7.180;2022-09-09T11:28:54;21.80;99.90
13251;DHT22;6692;50.710;7.180;2022-09-09T11:31:16;21.80;99.90
13251;DHT22;6692;50.710;7.180;2022-09-09T11:33:24;21.60;99.90
13251;DHT22;6692;50.710;7.180;2022-09-09T11:35:27;21.60;99.90
13251;DHT22;6692;50.710;7.180;2022-09-09T11:39:37;21.60;99.90
13251;DHT22;6692;50.710;7.180;2022-09-09T11:41:37;21.50;99.90
13251;DHT22;6692;50.710;7.180;2022-09-09T11:43:39;21.40;99.90
13251;DHT22;6692;50.710;7.180;2022-09-09T11:45:41;21.40;99.90
13251;DHT22;6692;50.710;7.180;2022-09-09T11:47:41;21.40;99.90
13251;DHT22;6692;50.710;7.180;2022-09-09T11:49:41;21.40;99.90
13251;DHT22;6692;50.710;7.180;2022-09-09T11:51:42;21.50;99.90
13251;DHT22;6692;50.710;7.180;2022-09-09T11:53:52;21.70;99.90
13251;DHT22;6692;50.710;7.180;2022-09-09T11:56:08;22.00;99.90
13251;DHT22;6692;50.710;7.180;2022-09-09T11:58:17;22.30;99.90
13251;DHT22;6692;50.710;7.180;2022-09-09T12:00:31;22.50;99.90
13251;DHT22;6692;50.710;7.180;2022-09-09T12:02:30;22.70;99.90
13251;DHT22;6692;50.710;7.180;2022-09-09T12:04:35;22.80;99.90
13251;DHT22;6692;50.710;7.180;2022-09-09T12:06:41;23.00;99.90
13251;DHT22;6692;50.710;7.180;2022-09-09T12:08:43;23.00;99.90
13251;DHT22;6692;50.710;7.180;2022-09-09T12:10:52;23.00;99.90
13251;DHT22;6692;50.710;7.180;2022-09-09T12:12:42;23.10;99.90
13251;DHT22;6692;50.710;7.180;2022-09-09T12:14:53;23.20;99.90
13251;DHT22;6692;50.710;7.180;2022-09-09T12:16:44;23.10;99.90
13251;DHT22;6692;50.710;7.180;2022-09-09T12:18:44;23.10;99.90
13251;DHT22;6692;50.710;7.180;2022-09-09T12:20:52;23.20;99.90
13251;DHT22;6692;50.710;7.180;2022-09-09T12:23:11;23.10;99.90
13251;DHT22;6692;50.710;7.180;2022-09-09T12:26:32;23.10;99.90
13251;DHT22;6692;50.710;7.180;2022-09-09T12:27:43;23.00;99.90
13251;DHT22;6692;50.710;7.180;2022-09-09T12:29:46;22.90;99.90
13251;DHT22;6692;50.710;7.180;2022-09-09T12:31:51;23.00;99.90
13251;DHT22;6692;50.710;7.180;2022-09-09T12:33:47;23.00;99.90
13251;DHT22;6692;50.710;7.180;2022-09-09T12:35:51;22.90;99.90
13251;DHT22;6692;50.710;7.180;2022-09-09T12:37:50;22.90;99.90
13251;DHT22;6692;50.710;7.180;2022-09-09T12:39:51;22.80;99.90
13251;DHT22;6692;50.710;7.180;2022-09-09T12:41:52;22.60;99.90
13251;DHT22;6692;50.710;7.180;2022-09-09T12:44:08;22.40;99.90
13251;DHT22;6692;50.710;7.180;2022-09-09T12:46:09;22.10;99.90
13251;DHT22;6692;50.710;7.180;2022-09-09T12:48:09;22.10;99.90
13251;DHT22;6692;50.710;7.180;2022-09-09T12:50:43;22.10;99.90
13251;DHT22;6692;50.710;7.180;2022-09-09T12:52:32;22.00;99.90
13251;DHT22;6692;50.710;7.180;2022-09-09T12:54:34;21.90;99.90
13251;DHT22;6692;50.710;7.180;2022-09-09T12:56:33;21.80;99.90
13251;DHT22;6692;50.710;7.180;2022-09-09T12:58:36;21.70;99.90
13251;DHT22;6692;50.710;7.180;2022-09-09T13:00:36;21.70;99.90
13251;DHT22;6692;50.710;7.180;2022-09-09T13:02:44;21.60;99.90
13251;DHT22;6692;50.710;7.180;2022-09-09T13:04:38;21.50;99.90
13251;DHT22;6692;50.710;7.180;2022-09-09T13:06:38;21.50;99.90
13251;DHT22;6692;50.710;7.180;2022-09-09T13:08:39;21.50;99.90
13251;DHT22;6692;50.710;7.180;2022-09-09T13:10:48;21.60;99.90
13251;DHT22;6692;50.710;7.180;2022-09-09T13:12:49;21.60;99.90
13251;DHT22;6692;50.710;7.180;2022-09-09T13:14:52;21.80;99.90
13251;DHT22;6692;50.710;7.180;2022-09-09T13:16:56;21.80;99.90
13251;DHT22;6692;50.710;7.180;2022-09-09T13:18:56;21.70;99.90
13251;DHT22;6692;50.710;7.180;2022-09-09T13:20:57;21.70;99.90
13251;DHT22;6692;50.710;7.180;2022-09-09T13:22:58;21.60;99.90
13251;DHT22;6692;50.710;7.180;2022-09-09T13:25:00;21.50;99.90
13251;DHT22;6692;50.710;7.180;2022-09-09T13:27:01;21.40;99.90
13251;DHT22;6692;50.710;7.180;2022-09-09T13:29:14;21.20;99.90
13251;DHT22;6692;50.710;7.180;2022-09-09T13:31:36;21.00;99.90
13251;DHT22;6692;50.710;7.180;2022-09-09T13:33:36;20.80;99.90
13251;DHT22;6692;50.710;7.180;2022-09-09T13:35:45;20.50;99.90
13251;DHT22;6692;50.710;7.180;2022-09-09T13:37:37;20.80;99.90
13251;DHT22;6692;50.710;7.180;2022-09-09T13:39:38;20.80;99.90